createdAt,value
2024-03-03T00:02:31.532Z,4.15
2024-03-03T00:05:28.408Z,4.21
2024-03-03T00:08:25.306Z,4.18
2024-03-03T00:11:22.211Z,4.07
2024-03-03T00:14:19.196Z,4.03
2024-03-03T00:17:16.186Z,4.28
2024-03-03T00:20:13.102Z,3.89
2024-03-03T00:23:09.966Z,4.12
2024-03-03T00:26:06.794Z,4.16
2024-03-03T00:29:03.718Z,4.03
2024-03-03T00:32:00.638Z,3.80
2024-03-03T00:34:57.801Z,3.81
2024-03-03T00:37:54.760Z,3.66
2024-03-03T00:40:51.596Z,3.74
2024-03-03T00:43:48.471Z,3.56
2024-03-03T00:46:48.051Z,3.59
2024-03-03T00:49:46.205Z,3.58
2024-03-03T00:52:44.285Z,3.57
2024-03-03T00:55:47.795Z,3.58
2024-03-03T00:58:44.692Z,3.47
2024-03-03T01:01:41.537Z,3.41
2024-03-03T01:04:38.391Z,3.62
2024-03-03T01:07:35.316Z,3.60
2024-03-03T01:10:32.211Z,3.69
2024-03-03T01:13:29.216Z,3.71
2024-03-03T01:16:26.103Z,3.55
2024-03-03T01:19:23.369Z,3.97
2024-03-03T01:22:20.403Z,2.95
2024-03-03T01:25:17.611Z,3.31
2024-03-03T01:28:14.655Z,3.36
2024-03-03T01:31:13.684Z,3.47
2024-03-03T01:34:10.813Z,3.28
2024-03-03T01:37:07.695Z,3.75
2024-03-03T01:40:05.672Z,3.79
2024-03-03T01:43:05.734Z,3.66
2024-03-03T01:46:03.289Z,3.60
2024-03-03T01:49:00.330Z,3.68
2024-03-03T01:51:57.380Z,3.79
2024-03-03T01:54:54.537Z,3.47
2024-03-03T01:57:54.200Z,3.71
2024-03-03T02:00:51.619Z,3.53
2024-03-03T02:03:51.081Z,3.54
2024-03-03T02:06:48.176Z,3.49
2024-03-03T02:09:45.691Z,3.57
2024-03-03T02:12:46.708Z,3.47
2024-03-03T02:15:43.669Z,3.43
2024-03-03T02:18:40.558Z,3.40
2024-03-03T02:21:37.552Z,3.86
2024-03-03T02:24:34.484Z,3.83
2024-03-03T02:27:34.344Z,3.67
2024-03-03T02:30:31.208Z,3.75
2024-03-03T02:33:28.048Z,3.45
2024-03-03T02:36:25.988Z,3.72
2024-03-03T02:39:22.828Z,3.29
2024-03-03T02:42:19.673Z,3.31
2024-03-03T02:45:16.686Z,3.21
2024-03-03T02:48:13.703Z,3.50
2024-03-03T02:51:10.848Z,3.13
2024-03-03T02:54:07.753Z,3.27
2024-03-03T02:57:04.895Z,3.27
2024-03-03T03:00:02.325Z,3.30
2024-03-03T03:02:59.262Z,3.50
2024-03-03T03:05:56.162Z,3.18
2024-03-03T03:08:53.038Z,3.50
2024-03-03T03:11:50.331Z,3.27
2024-03-03T03:14:47.183Z,3.18
2024-03-03T03:17:44.594Z,2.97
2024-03-03T03:20:42.056Z,3.15
2024-03-03T03:23:38.962Z,3.30
2024-03-03T03:26:35.828Z,3.30
2024-03-03T03:29:32.698Z,3.28
2024-03-03T03:32:29.585Z,3.11
2024-03-03T03:35:26.823Z,3.08
2024-03-03T03:38:23.738Z,3.13
2024-03-03T03:41:21.188Z,3.25
2024-03-03T03:44:20.241Z,3.02
2024-03-03T03:47:17.170Z,2.96
2024-03-03T03:50:14.087Z,3.09
2024-03-03T03:53:10.930Z,3.03
2024-03-03T03:56:07.936Z,3.13
2024-03-03T03:59:05.027Z,3.39
2024-03-03T04:02:05.166Z,3.09
2024-03-03T04:05:02.221Z,3.19
2024-03-03T04:07:59.072Z,3.22
2024-03-03T04:10:58.770Z,3.11
2024-03-03T04:13:55.654Z,3.20
2024-03-03T04:16:52.519Z,3.09
2024-03-03T04:19:49.393Z,3.14
2024-03-03T04:22:46.379Z,3.31
2024-03-03T04:25:43.290Z,3.25
2024-03-03T04:28:40.138Z,3.38
2024-03-03T04:31:44.340Z,3.21
2024-03-03T04:34:41.785Z,3.36
2024-03-03T04:37:38.658Z,3.43
2024-03-03T04:40:35.542Z,3.36
2024-03-03T04:43:32.398Z,3.13
2024-03-03T04:46:29.305Z,3.18
2024-03-03T04:49:26.279Z,3.15
2024-03-03T04:52:23.193Z,3.04
2024-03-03T04:55:20.167Z,3.24
2024-03-03T04:58:17.124Z,3.43
2024-03-03T05:01:14.223Z,3.21
2024-03-03T05:04:11.464Z,3.09
2024-03-03T05:07:08.470Z,3.04
2024-03-03T05:10:05.943Z,3.05
2024-03-03T05:13:03.590Z,2.99
2024-03-03T05:16:00.570Z,3.09
2024-03-03T05:18:57.728Z,3.16
2024-03-03T05:21:54.751Z,3.19
2024-03-03T05:24:51.688Z,2.98
2024-03-03T05:27:48.632Z,3.10
2024-03-03T05:30:45.690Z,3.01
2024-03-03T05:33:42.606Z,3.05
2024-03-03T05:36:43.682Z,3.22
2024-03-03T05:39:41.643Z,3.07
2024-03-03T05:42:38.719Z,3.08
2024-03-03T05:45:35.628Z,3.08
2024-03-03T05:48:32.547Z,3.26
2024-03-03T05:51:29.713Z,3.13
2024-03-03T05:54:26.567Z,2.87
2024-03-03T05:57:23.495Z,2.75
2024-03-03T06:00:20.452Z,2.81
2024-03-03T06:03:17.311Z,3.05
2024-03-03T06:06:15.211Z,3.00
2024-03-03T06:09:13.666Z,3.02
2024-03-03T06:12:10.744Z,2.89
2024-03-03T06:15:07.860Z,2.98
2024-03-03T06:18:05.396Z,2.99
2024-03-03T06:21:02.326Z,2.79
2024-03-03T06:23:59.597Z,3.10
2024-03-03T06:26:56.538Z,2.72
2024-03-03T06:29:53.424Z,3.00
2024-03-03T06:32:50.407Z,2.95
2024-03-03T06:35:47.955Z,2.62
2024-03-03T06:38:45.369Z,3.06
2024-03-03T06:41:45.111Z,3.10
2024-03-03T06:44:43.004Z,2.56
2024-03-03T06:47:39.980Z,2.72
2024-03-03T06:50:36.858Z,3.58
2024-03-03T06:53:40.235Z,3.53
2024-03-03T06:56:37.106Z,3.54
2024-03-03T06:59:35.303Z,3.07
2024-03-03T07:02:50.610Z,3.37
2024-03-03T07:05:47.468Z,3.36
2024-03-03T07:08:44.321Z,3.47
2024-03-03T07:11:41.226Z,3.34
2024-03-03T07:14:43.319Z,3.34
2024-03-03T07:17:40.328Z,3.46
2024-03-03T07:20:37.221Z,3.39
2024-03-03T07:23:34.070Z,3.45
2024-03-03T07:26:32.149Z,3.47
2024-03-03T07:29:29.064Z,3.58
2024-03-03T07:32:29.835Z,3.77
2024-03-03T07:35:26.952Z,3.02
2024-03-03T07:38:23.828Z,3.18
2024-03-03T07:41:20.768Z,3.49
2024-03-03T07:44:17.746Z,3.47
2024-03-03T07:47:14.611Z,3.48
2024-03-03T07:50:11.558Z,3.80
2024-03-03T07:53:08.406Z,3.83
2024-03-03T07:56:05.810Z,4.00
2024-03-03T07:59:06.669Z,4.13
2024-03-03T08:02:03.941Z,4.60
2024-03-03T08:05:01.074Z,4.59
2024-03-03T08:07:58.012Z,4.63
2024-03-03T08:10:54.894Z,4.94
2024-03-03T08:13:51.744Z,5.24
2024-03-03T08:16:48.591Z,5.56
2024-03-03T08:19:45.490Z,5.45
2024-03-03T08:22:43.549Z,6.00
2024-03-03T08:25:40.423Z,5.92
2024-03-03T08:28:37.286Z,5.95
2024-03-03T08:31:36.686Z,6.05
2024-03-03T08:34:33.690Z,6.56
2024-03-03T08:37:32.460Z,6.99
2024-03-03T08:40:30.694Z,7.55
2024-03-03T08:43:27.665Z,7.88
2024-03-03T08:46:24.634Z,8.92
2024-03-03T08:49:21.727Z,9.69
2024-03-03T08:52:18.805Z,10.89
2024-03-03T08:55:15.839Z,12.74
2024-03-03T08:58:12.969Z,13.14
2024-03-03T09:01:15.441Z,13.72
2024-03-03T09:04:13.840Z,15.03
2024-03-03T09:07:11.139Z,13.75
2024-03-03T09:10:08.546Z,14.58
2024-03-03T09:13:05.665Z,12.96
2024-03-03T09:16:03.493Z,14.86
2024-03-03T09:19:00.610Z,15.79
2024-03-03T09:21:57.568Z,15.62
2024-03-03T09:24:54.631Z,17.12
2024-03-03T09:27:51.657Z,14.69
2024-03-03T09:30:49.072Z,13.94
2024-03-03T09:33:47.581Z,15.90
2024-03-03T09:36:46.549Z,15.06
2024-03-03T09:39:44.365Z,15.73
2024-03-03T09:42:46.507Z,14.72
2024-03-03T09:45:49.214Z,16.60
2024-03-03T09:48:47.193Z,14.54
2024-03-03T09:51:49.347Z,14.84
2024-03-03T09:54:47.063Z,15.04
2024-03-03T09:57:44.387Z,16.17
2024-03-03T10:00:42.175Z,15.99
2024-03-03T10:03:42.412Z,15.91
2024-03-03T10:06:40.148Z,15.08
2024-03-03T10:09:39.846Z,17.13
2024-03-03T10:12:38.286Z,16.47
2024-03-03T10:15:35.608Z,16.64
2024-03-03T10:18:32.692Z,16.82
2024-03-03T10:21:40.163Z,17.22
2024-03-03T10:24:37.151Z,17.32
2024-03-03T10:27:34.052Z,17.42
2024-03-03T10:30:30.941Z,16.44
2024-03-03T10:33:27.795Z,19.07
2024-03-03T10:36:24.701Z,17.79
2024-03-03T10:39:21.557Z,20.33
2024-03-03T10:42:19.053Z,17.29
2024-03-03T10:45:16.107Z,18.68
2024-03-03T10:48:12.992Z,18.54
2024-03-03T10:51:09.846Z,18.60
2024-03-03T10:54:09.229Z,16.91
2024-03-03T10:57:07.447Z,19.12
2024-03-03T11:00:15.404Z,19.15
2024-03-03T11:03:13.678Z,19.47
2024-03-03T11:06:11.016Z,18.35
2024-03-03T11:09:10.315Z,20.21
2024-03-03T11:12:14.073Z,20.52
2024-03-03T11:15:18.507Z,18.02
2024-03-03T11:18:22.458Z,16.84
2024-03-03T11:21:30.217Z,18.02
2024-03-03T11:24:36.340Z,19.32
2024-03-03T11:27:41.805Z,16.53
2024-03-03T11:30:38.690Z,18.83
2024-03-03T11:33:36.360Z,17.43
2024-03-03T11:36:33.806Z,19.95
2024-03-03T11:39:30.704Z,17.56
2024-03-03T11:42:35.920Z,19.33
2024-03-03T11:45:47.232Z,20.42
2024-03-03T11:48:45.768Z,18.34
2024-03-03T11:51:42.742Z,19.65
2024-03-03T11:54:43.141Z,19.11
2024-03-03T11:57:42.020Z,19.88
2024-03-03T12:00:39.400Z,20.12
2024-03-03T12:03:37.229Z,21.82
2024-03-03T12:06:34.106Z,18.43
2024-03-03T12:09:33.442Z,21.78
2024-03-03T12:12:30.316Z,18.96
2024-03-03T12:15:29.779Z,19.40
2024-03-03T12:18:27.478Z,19.14
2024-03-03T12:21:25.472Z,19.93
2024-03-03T12:24:22.367Z,20.28
2024-03-03T12:27:19.254Z,19.55
2024-03-03T12:30:40.436Z,19.16
2024-03-03T12:33:41.568Z,20.73
2024-03-03T12:36:38.560Z,20.85
2024-03-03T12:39:35.444Z,21.83
2024-03-03T12:42:32.637Z,20.14
2024-03-03T12:45:29.561Z,19.86
2024-03-03T12:48:28.014Z,20.47
2024-03-03T12:51:25.298Z,20.26
2024-03-03T12:54:22.196Z,19.67
2024-03-03T12:57:23.490Z,19.12
2024-03-03T13:00:20.496Z,20.26
2024-03-03T13:03:18.691Z,20.08
2024-03-03T13:06:17.990Z,20.78
2024-03-03T13:09:15.746Z,19.97
2024-03-03T13:12:12.708Z,19.53
2024-03-03T13:15:12.126Z,20.47
2024-03-03T13:18:16.855Z,21.16
2024-03-03T13:21:17.569Z,21.54
2024-03-03T13:24:15.068Z,21.68
2024-03-03T13:27:11.978Z,21.67
2024-03-03T13:30:14.688Z,22.09
2024-03-03T13:33:11.652Z,23.08
2024-03-03T13:36:13.846Z,21.44
2024-03-03T13:39:12.060Z,22.79
2024-03-03T13:42:10.789Z,20.55
2024-03-03T13:45:10.890Z,20.88
2024-03-03T13:48:13.994Z,20.71
2024-03-03T13:51:10.922Z,20.32
2024-03-03T13:54:08.166Z,19.37
2024-03-03T13:57:06.028Z,18.56
2024-03-03T14:00:10.212Z,19.42
2024-03-03T14:03:07.826Z,19.84
2024-03-03T14:06:04.913Z,18.74
2024-03-03T14:09:07.172Z,18.87
2024-03-03T14:12:04.591Z,20.97
2024-03-03T14:15:01.491Z,20.50
2024-03-03T14:17:59.042Z,21.26
2024-03-03T14:20:56.039Z,20.78
2024-03-03T14:23:53.506Z,20.33
2024-03-03T14:26:50.414Z,19.71
2024-03-03T14:29:47.344Z,17.45
2024-03-03T14:32:44.344Z,16.91
2024-03-03T14:35:41.252Z,17.34
2024-03-03T14:38:38.199Z,16.90
2024-03-03T14:41:35.067Z,17.15
2024-03-03T14:44:31.923Z,16.92
2024-03-03T14:47:28.897Z,16.65
2024-03-03T14:50:25.768Z,16.26
2024-03-03T14:53:22.620Z,15.93
2024-03-03T14:56:19.763Z,15.73
2024-03-03T14:59:16.737Z,15.59
2024-03-03T15:02:13.749Z,15.66
2024-03-03T15:05:10.649Z,15.40
2024-03-03T15:08:07.977Z,15.79
2024-03-03T15:11:05.201Z,15.28
2024-03-03T15:14:02.766Z,15.36
2024-03-03T15:17:02.321Z,15.40
2024-03-03T15:19:59.781Z,15.00
2024-03-03T15:22:56.698Z,15.03
2024-03-03T15:25:53.574Z,14.75
2024-03-03T15:28:50.547Z,14.83
2024-03-03T15:31:48.419Z,14.66
2024-03-03T15:34:45.298Z,14.48
2024-03-03T15:37:42.264Z,14.50
2024-03-03T15:40:40.206Z,14.57
2024-03-03T15:43:37.184Z,14.30
2024-03-03T15:46:35.044Z,14.54
2024-03-03T15:49:32.130Z,14.32
2024-03-03T15:52:29.136Z,14.22
2024-03-03T15:55:26.088Z,14.27
2024-03-03T15:58:22.977Z,14.43
2024-03-03T16:01:20.095Z,14.24
2024-03-03T16:04:17.057Z,14.13
2024-03-03T16:07:14.658Z,14.16
2024-03-03T16:10:12.390Z,13.96
2024-03-03T16:13:09.333Z,13.97
2024-03-03T16:16:06.811Z,14.01
2024-03-03T16:19:03.984Z,13.62
2024-03-03T16:22:00.962Z,14.09
2024-03-03T16:24:57.886Z,13.88
2024-03-03T16:27:55.159Z,13.78
2024-03-03T16:30:52.146Z,13.50
2024-03-03T16:33:49.122Z,13.35
2024-03-03T16:36:46.163Z,13.09
2024-03-03T16:39:43.054Z,13.02
2024-03-03T16:43:00.030Z,13.24
2024-03-03T16:45:58.907Z,13.20
2024-03-03T16:48:58.040Z,13.25
2024-03-03T16:51:58.555Z,13.14
2024-03-03T16:54:55.980Z,12.88
2024-03-03T16:57:58.885Z,12.32
2024-03-03T17:00:55.925Z,12.36
2024-03-03T17:03:52.862Z,12.15
2024-03-03T17:06:50.090Z,12.11
2024-03-03T17:09:47.170Z,12.18
2024-03-03T17:12:44.350Z,12.06
2024-03-03T17:15:41.232Z,11.89
2024-03-03T17:18:38.137Z,11.62
2024-03-03T17:21:35.038Z,11.61
2024-03-03T17:24:32.007Z,11.35
2024-03-03T17:27:28.852Z,11.33
2024-03-03T17:30:25.793Z,11.15
2024-03-03T17:33:22.778Z,10.92
2024-03-03T17:36:21.978Z,10.56
2024-03-03T17:39:20.263Z,10.58
2024-03-03T17:42:20.308Z,10.54
2024-03-03T17:45:17.180Z,10.51
2024-03-03T17:48:16.712Z,10.45
2024-03-03T17:51:13.943Z,10.67
2024-03-03T17:54:11.369Z,10.33
2024-03-03T17:57:08.266Z,10.38
2024-03-03T18:00:06.263Z,10.08
2024-03-03T18:03:03.422Z,9.93
2024-03-03T18:06:00.296Z,9.93
2024-03-03T18:08:57.458Z,9.62
2024-03-03T18:11:55.397Z,9.58
2024-03-03T18:14:54.171Z,9.64
2024-03-03T18:17:51.217Z,9.63
2024-03-03T18:20:48.230Z,9.94
2024-03-03T18:23:45.386Z,10.10
2024-03-03T18:26:42.257Z,9.97
2024-03-03T18:29:39.233Z,9.78
2024-03-03T18:32:36.447Z,9.87
2024-03-03T18:35:33.372Z,9.59
2024-03-03T18:38:30.270Z,9.32
2024-03-03T18:41:27.310Z,9.29
2024-03-03T18:44:24.639Z,9.08
2024-03-03T18:47:22.756Z,9.10
2024-03-03T18:50:23.859Z,10.00
2024-03-03T18:53:22.406Z,9.66
2024-03-03T18:56:19.533Z,9.33
2024-03-03T18:59:16.987Z,9.97
2024-03-03T19:02:14.050Z,9.74
2024-03-03T19:05:12.478Z,9.63
2024-03-03T19:08:09.532Z,9.41
2024-03-03T19:11:06.555Z,9.35
2024-03-03T19:14:03.712Z,9.13
2024-03-03T19:17:00.560Z,9.11
2024-03-03T19:19:58.252Z,9.11
2024-03-03T19:22:59.426Z,9.24
2024-03-03T19:25:56.917Z,8.88
2024-03-03T19:28:54.738Z,9.07
2024-03-03T19:31:51.704Z,9.22
2024-03-03T19:34:48.792Z,9.12
2024-03-03T19:37:48.122Z,8.93
2024-03-03T19:40:45.425Z,8.80
2024-03-03T19:43:42.797Z,8.65
2024-03-03T19:46:42.827Z,8.54
2024-03-03T19:49:39.820Z,8.39
2024-03-03T19:52:36.951Z,8.59
2024-03-03T19:55:33.925Z,8.26
2024-03-03T19:58:30.850Z,8.35
2024-03-03T20:01:27.987Z,8.14
2024-03-03T20:04:24.936Z,8.04
2024-03-03T20:07:21.851Z,8.10
2024-03-03T20:10:19.065Z,8.08
2024-03-03T20:13:16.519Z,7.87
2024-03-03T20:16:13.527Z,7.87
2024-03-03T20:19:10.420Z,7.76
2024-03-03T20:22:07.381Z,7.79
2024-03-03T20:25:08.210Z,7.45
2024-03-03T20:28:06.702Z,7.41
2024-03-03T20:31:05.052Z,7.23
2024-03-03T20:34:02.486Z,7.31
2024-03-03T20:36:59.335Z,7.20
2024-03-03T20:39:56.248Z,7.28
2024-03-03T20:42:53.197Z,7.48
2024-03-03T20:45:51.133Z,7.51
2024-03-03T20:48:48.002Z,7.54
2024-03-03T20:51:45.033Z,7.03
2024-03-03T20:54:41.973Z,7.02
2024-03-03T20:57:39.375Z,7.11
2024-03-03T21:00:36.300Z,7.15
2024-03-03T21:03:33.243Z,7.45
2024-03-03T21:06:30.119Z,7.34
2024-03-03T21:09:27.063Z,6.97
2024-03-03T21:12:24.020Z,7.01
2024-03-03T21:15:20.879Z,7.13
2024-03-03T21:18:17.772Z,6.88
2024-03-03T21:21:14.757Z,6.87
2024-03-03T21:24:11.705Z,6.95
2024-03-03T21:27:08.963Z,7.05
2024-03-03T21:30:06.819Z,6.73
2024-03-03T21:33:04.116Z,6.79
2024-03-03T21:36:01.098Z,6.55
2024-03-03T21:38:58.399Z,6.76
2024-03-03T21:41:56.171Z,6.74
2024-03-03T21:44:53.009Z,6.30
2024-03-03T21:47:49.905Z,6.34
2024-03-03T21:50:46.957Z,6.30
2024-03-03T21:53:43.875Z,6.33
2024-03-03T21:56:40.783Z,6.12
2024-03-03T21:59:37.633Z,6.08
2024-03-03T22:02:34.628Z,6.14
2024-03-03T22:05:31.583Z,6.08
2024-03-03T22:08:28.501Z,6.04
2024-03-03T22:11:25.510Z,6.11
2024-03-03T22:14:22.451Z,6.03
2024-03-03T22:17:21.253Z,6.07
2024-03-03T22:20:18.163Z,5.85
2024-03-03T22:23:15.156Z,5.94
2024-03-03T22:26:12.046Z,6.03
2024-03-03T22:29:08.977Z,5.86
2024-03-03T22:32:06.156Z,5.91
2024-03-03T22:35:03.713Z,5.78
2024-03-03T22:38:00.603Z,5.64
2024-03-03T22:40:59.171Z,5.46
2024-03-03T22:43:56.033Z,5.53
2024-03-03T22:46:55.242Z,5.57
2024-03-03T22:49:53.957Z,5.51
2024-03-03T22:52:53.761Z,5.64
2024-03-03T22:55:50.629Z,5.42
2024-03-03T22:58:50.469Z,5.52
2024-03-03T23:01:49.846Z,5.41
2024-03-03T23:04:49.301Z,5.26
2024-03-03T23:07:47.733Z,5.26
2024-03-03T23:10:44.799Z,5.13
2024-03-03T23:13:41.729Z,5.29
2024-03-03T23:16:39.274Z,5.05
2024-03-03T23:19:36.669Z,5.37
2024-03-03T23:22:33.615Z,5.04
2024-03-03T23:25:30.974Z,5.06
2024-03-03T23:28:27.980Z,5.24
2024-03-03T23:31:25.212Z,5.05
2024-03-03T23:34:22.091Z,5.11
2024-03-03T23:37:19.836Z,4.92
2024-03-03T23:40:16.869Z,4.98
2024-03-03T23:43:13.764Z,4.96
2024-03-03T23:46:10.639Z,5.01
2024-03-03T23:49:07.599Z,4.79
2024-03-03T23:52:05.207Z,4.68
2024-03-03T23:55:02.458Z,4.73
2024-03-03T23:57:59.345Z,4.66
